Taipei, Taiwan
Current Conditions -  °F | °C
As of 12:00 PM on Friday 31 Oct 2014 (Local Time) from RCSS Reporting Station
Scattered Clouds Scattered Clouds  
Wind Chill: 86°   Ceiling: Unl
Heat Index: 87°   Visibility: 6mi
Dew Point: 63°   Wind: 1mph
Humidity: 45%   Direction: NA
Pressure: 29.91"   Gusts: NA
Location:  25.02°N, 121.45°E
Report Text: RCSS 310400Z VRB01KT 9999 FEW030 SCT045 30/17 Q1013 NOSIGRMK A2993
Loading
Personal Weather Stations






























Interactive Weather Map
Tropical Storm Tracking
New forecast layout! Learn more

10-Day Weather Forecast

Advertisements
Track Severe Weather on mobile